createdAt,value
2023-02-20T00:00:18.748Z,8.23
2023-02-20T00:02:45.453Z,7.57
2023-02-20T00:05:13.442Z,8.13
2023-02-20T00:07:40.509Z,8.13
2023-02-20T00:10:07.959Z,8.02
2023-02-20T00:12:34.616Z,8.57
2023-02-20T00:15:01.272Z,7.88
2023-02-20T00:17:28.447Z,8.15
2023-02-20T00:19:55.628Z,8.50
2023-02-20T00:22:23.199Z,8.02
2023-02-20T00:24:50.570Z,8.30
2023-02-20T00:27:17.995Z,8.63
2023-02-20T00:29:45.593Z,8.52
2023-02-20T00:32:12.915Z,8.33
2023-02-20T00:34:39.650Z,8.50
2023-02-20T00:37:06.281Z,8.90
2023-02-20T00:39:32.937Z,9.25
2023-02-20T00:41:59.741Z,8.73
2023-02-20T00:44:26.418Z,8.17
2023-02-20T00:46:52.994Z,9.50
2023-02-20T00:49:19.665Z,8.80
2023-02-20T00:51:46.536Z,8.40
2023-02-20T00:54:13.389Z,8.68
2023-02-20T00:56:40.008Z,8.83
2023-02-20T00:59:06.576Z,9.55
2023-02-20T01:01:33.598Z,8.88
2023-02-20T01:04:00.221Z,9.15
2023-02-20T01:06:26.772Z,8.70
2023-02-20T01:08:53.475Z,9.47
2023-02-20T01:11:20.070Z,9.48
2023-02-20T01:13:46.724Z,8.77
2023-02-20T01:16:13.750Z,10.40
2023-02-20T01:18:40.583Z,10.23
2023-02-20T01:21:07.198Z,9.93
2023-02-20T01:23:33.760Z,10.15
2023-02-20T01:26:00.892Z,10.45
2023-02-20T01:28:27.485Z,9.63
2023-02-20T01:30:54.099Z,9.95
2023-02-20T01:33:20.682Z,9.97
2023-02-20T01:35:47.294Z,10.68
2023-02-20T01:38:13.936Z,10.52
2023-02-20T01:40:48.795Z,9.82
2023-02-20T01:43:15.852Z,9.70
2023-02-20T01:45:42.904Z,9.83
2023-02-20T01:48:24.397Z,10.52
2023-02-20T01:50:53.788Z,9.77
2023-02-20T01:53:23.698Z,9.77
2023-02-20T01:56:02.473Z,10.38
2023-02-20T01:58:36.709Z,10.50
2023-02-20T02:01:04.903Z,10.77
2023-02-20T02:03:36.090Z,12.02
2023-02-20T02:06:07.335Z,11.80
2023-02-20T02:08:37.748Z,12.20
2023-02-20T02:11:08.717Z,12.60
2023-02-20T02:13:38.250Z,9.57
2023-02-20T02:16:42.086Z,12.48
2023-02-20T02:19:36.372Z,13.05
2023-02-20T02:22:40.729Z,13.80
2023-02-20T02:25:16.240Z,14.27
2023-02-20T02:28:11.878Z,14.02
2023-02-20T02:31:02.988Z,14.50
2023-02-20T02:33:53.919Z,14.73
2023-02-20T02:36:35.717Z,15.30
2023-02-20T02:39:16.376Z,15.57
2023-02-20T02:41:55.388Z,15.63
2023-02-20T02:44:34.562Z,17.63
2023-02-20T02:47:08.328Z,16.13
2023-02-20T02:49:47.385Z,17.10
2023-02-20T02:52:35.412Z,16.83
2023-02-20T02:55:02.920Z,18.42
2023-02-20T02:57:29.658Z,17.88
2023-02-20T03:00:05.040Z,18.95
2023-02-20T03:02:38.231Z,16.25
2023-02-20T03:05:06.478Z,19.17
2023-02-20T03:07:36.361Z,18.35
2023-02-20T03:10:09.336Z,20.58
2023-02-20T03:12:41.474Z,17.73
2023-02-20T03:15:35.339Z,17.92
2023-02-20T03:18:24.618Z,19.77
2023-02-20T03:20:58.786Z,19.45
2023-02-20T03:23:32.480Z,20.20
2023-02-20T03:26:03.773Z,20.00
2023-02-20T03:28:46.425Z,21.48
2023-02-20T03:31:19.446Z,21.23
2023-02-20T03:34:11.176Z,19.27
2023-02-20T03:37:01.071Z,20.17
2023-02-20T03:39:51.649Z,20.30
2023-02-20T03:42:38.570Z,19.85
2023-02-20T03:45:07.428Z,20.37
2023-02-20T03:47:36.457Z,19.45
2023-02-20T03:50:08.237Z,20.05
2023-02-20T03:52:35.108Z,19.50
2023-02-20T03:55:02.060Z,21.35
2023-02-20T03:57:32.928Z,19.00
2023-02-20T04:00:07.444Z,19.80
2023-02-20T04:02:39.661Z,20.70
2023-02-20T04:05:13.437Z,19.10
2023-02-20T04:07:52.884Z,20.52
2023-02-20T04:10:25.685Z,19.80
2023-02-20T04:12:54.777Z,20.33
2023-02-20T04:15:23.430Z,20.75
2023-02-20T04:18:10.898Z,20.05
2023-02-20T04:20:38.168Z,16.90
2023-02-20T04:23:15.788Z,19.80
2023-02-20T04:25:47.724Z,21.15
2023-02-20T04:28:16.018Z,21.88
2023-02-20T04:30:43.256Z,21.08
2023-02-20T04:33:14.460Z,21.40
2023-02-20T04:35:41.614Z,21.73
2023-02-20T04:38:09.540Z,21.17
2023-02-20T04:40:36.682Z,21.23
2023-02-20T04:43:03.736Z,21.20
2023-02-20T04:45:30.523Z,20.90
2023-02-20T04:47:57.221Z,20.93
2023-02-20T04:50:24.539Z,21.55
2023-02-20T04:52:51.261Z,22.20
2023-02-20T04:55:18.044Z,22.27
2023-02-20T04:57:44.636Z,23.80
2023-02-20T05:00:12.617Z,23.60
2023-02-20T05:02:40.009Z,21.95
2023-02-20T05:05:14.843Z,22.33
2023-02-20T05:07:41.452Z,22.48
2023-02-20T05:10:08.333Z,21.92
2023-02-20T05:12:34.933Z,18.97
2023-02-20T05:15:01.512Z,22.75
2023-02-20T05:17:28.087Z,22.25
2023-02-20T05:19:54.697Z,21.48
2023-02-20T05:22:22.666Z,20.65
2023-02-20T05:24:51.245Z,20.83
2023-02-20T05:27:20.943Z,19.33
2023-02-20T05:29:50.124Z,19.77
2023-02-20T05:32:17.645Z,19.58
2023-02-20T05:34:44.598Z,19.40
2023-02-20T05:37:12.977Z,19.43
2023-02-20T05:39:39.647Z,18.60
2023-02-20T05:42:07.147Z,19.10
2023-02-20T05:44:34.237Z,17.75
2023-02-20T05:47:01.434Z,18.63
2023-02-20T05:49:28.524Z,17.37
2023-02-20T05:51:58.562Z,16.92
2023-02-20T05:54:25.248Z,16.92
2023-02-20T05:56:52.464Z,15.70
2023-02-20T05:59:21.711Z,16.67
2023-02-20T06:01:52.611Z,12.47
2023-02-20T06:04:19.651Z,14.32
2023-02-20T06:06:46.372Z,14.88
2023-02-20T06:09:16.748Z,13.93
2023-02-20T06:11:50.335Z,13.15
2023-02-20T06:14:18.900Z,12.47
2023-02-20T06:16:46.002Z,12.82
2023-02-20T06:19:18.995Z,13.23
2023-02-20T06:21:46.943Z,12.82
2023-02-20T06:24:13.619Z,13.80
2023-02-20T06:26:42.101Z,11.57
2023-02-20T06:29:09.352Z,10.45
2023-02-20T06:31:36.326Z,11.85
2023-02-20T06:34:03.168Z,12.02
2023-02-20T06:36:34.377Z,11.85
2023-02-20T06:39:01.354Z,11.90
2023-02-20T06:41:27.980Z,11.90
2023-02-20T06:43:54.830Z,10.88
2023-02-20T06:46:23.311Z,10.73
2023-02-20T06:48:55.411Z,10.75
2023-02-20T06:51:25.267Z,11.87
2023-02-20T06:53:51.859Z,10.93
2023-02-20T06:56:21.712Z,11.77
2023-02-20T06:58:49.901Z,11.55
2023-02-20T07:01:18.176Z,11.68
2023-02-20T07:03:46.978Z,11.83
2023-02-20T07:06:13.885Z,11.60
2023-02-20T07:08:40.649Z,11.48
2023-02-20T07:11:07.921Z,11.82
2023-02-20T07:13:34.602Z,10.40
2023-02-20T07:16:01.292Z,11.97
2023-02-20T07:18:28.010Z,9.45
2023-02-20T07:20:55.382Z,9.90
2023-02-20T07:23:22.778Z,10.10
2023-02-20T07:25:50.357Z,9.32
2023-02-20T07:28:20.256Z,10.20
2023-02-20T07:30:49.174Z,9.98
2023-02-20T07:33:17.594Z,10.30
2023-02-20T07:35:44.625Z,9.75
2023-02-20T07:38:11.529Z,9.25
2023-02-20T07:40:40.096Z,10.30
2023-02-20T07:43:07.184Z,9.15
2023-02-20T07:45:34.183Z,9.30
2023-02-20T07:48:00.973Z,9.25
2023-02-20T07:50:27.566Z,10.32
2023-02-20T07:52:54.349Z,8.87
2023-02-20T07:55:21.130Z,9.93
2023-02-20T07:57:49.112Z,10.05
2023-02-20T08:00:17.816Z,9.68
2023-02-20T08:02:44.424Z,10.48
2023-02-20T08:05:11.246Z,10.07
2023-02-20T08:07:37.968Z,9.27
2023-02-20T08:10:05.647Z,9.27
2023-02-20T08:12:32.363Z,8.43
2023-02-20T08:14:58.961Z,10.00
2023-02-20T08:17:31.743Z,9.80
2023-02-20T08:19:58.627Z,8.60
2023-02-20T08:22:36.458Z,10.10
2023-02-20T08:25:08.747Z,9.82
2023-02-20T08:27:38.414Z,9.57
2023-02-20T08:30:07.174Z,9.50
2023-02-20T08:32:33.959Z,8.90
2023-02-20T08:35:00.785Z,10.00
2023-02-20T08:37:27.479Z,9.27
2023-02-20T08:39:54.124Z,9.65
2023-02-20T08:42:20.781Z,8.97
2023-02-20T08:44:47.431Z,9.38
2023-02-20T08:47:14.004Z,10.40
2023-02-20T08:49:40.608Z,9.68
2023-02-20T08:52:07.310Z,9.88
2023-02-20T08:54:33.944Z,9.93
2023-02-20T08:57:00.646Z,10.35
2023-02-20T08:59:30.734Z,10.15
2023-02-20T09:01:57.525Z,10.60
2023-02-20T09:04:24.211Z,10.63
2023-02-20T09:06:50.981Z,11.80
2023-02-20T09:09:17.595Z,10.75
2023-02-20T09:11:44.517Z,11.32
2023-02-20T09:14:11.127Z,10.95
2023-02-20T09:16:41.811Z,10.82
2023-02-20T09:19:09.674Z,11.47
2023-02-20T09:21:36.513Z,11.52
2023-02-20T09:24:05.389Z,12.40
2023-02-20T09:26:32.018Z,11.60
2023-02-20T09:28:58.679Z,11.38
2023-02-20T09:31:25.472Z,12.73
2023-02-20T09:33:52.124Z,12.70
2023-02-20T09:36:18.808Z,12.65
2023-02-20T09:38:45.417Z,12.55
2023-02-20T09:41:42.861Z,12.48
2023-02-20T09:44:18.080Z,12.03
2023-02-20T09:46:47.329Z,12.63
2023-02-20T09:49:25.186Z,11.80
2023-02-20T09:51:56.442Z,12.15
2023-02-20T09:54:30.072Z,11.98
2023-02-20T09:57:00.254Z,10.93
2023-02-20T09:59:44.032Z,11.00
2023-02-20T10:02:14.967Z,11.32
2023-02-20T10:05:00.307Z,9.90
2023-02-20T10:07:41.180Z,11.10
2023-02-20T10:10:29.548Z,8.90
2023-02-20T10:13:05.035Z,9.38
2023-02-20T10:15:45.835Z,8.85
2023-02-20T10:18:45.918Z,9.23
2023-02-20T10:21:50.326Z,8.48
2023-02-20T10:24:49.932Z,8.70
2023-02-20T10:27:40.209Z,9.02
2023-02-20T10:30:10.242Z,10.05
2023-02-20T10:32:52.303Z,8.65
2023-02-20T10:35:24.993Z,9.40
2023-02-20T10:37:56.982Z,9.40
2023-02-20T10:40:31.550Z,8.77
2023-02-20T10:43:06.444Z,8.23
2023-02-20T10:45:50.571Z,8.00
2023-02-20T10:48:17.356Z,7.53
2023-02-20T10:51:10.470Z,8.00
2023-02-20T10:53:52.142Z,7.45
2023-02-20T10:56:31.175Z,6.65
2023-02-20T10:59:06.850Z,7.95
2023-02-20T11:01:36.065Z,8.48
2023-02-20T11:04:09.496Z,8.30
2023-02-20T11:06:50.174Z,8.13
2023-02-20T11:09:16.960Z,9.82
2023-02-20T11:11:45.840Z,9.82
2023-02-20T11:14:20.280Z,9.98
2023-02-20T11:16:55.123Z,9.60
2023-02-20T11:19:29.204Z,10.70
2023-02-20T11:21:55.952Z,11.50
2023-02-20T11:24:35.949Z,11.85
2023-02-20T11:27:23.341Z,12.35
2023-02-20T11:30:22.144Z,13.33
2023-02-20T11:32:49.605Z,11.98
2023-02-20T11:35:19.216Z,12.00
2023-02-20T11:38:10.320Z,11.25
2023-02-20T11:40:37.433Z,12.27
2023-02-20T11:43:21.690Z,12.23
2023-02-20T11:45:48.300Z,12.95
2023-02-20T11:48:17.394Z,13.52
2023-02-20T11:50:46.775Z,12.63
2023-02-20T11:53:23.433Z,14.18
2023-02-20T11:56:11.601Z,13.10
2023-02-20T11:58:39.442Z,12.52
2023-02-20T12:01:07.211Z,13.10
2023-02-20T12:03:36.062Z,12.30
2023-02-20T12:06:38.813Z,13.05
2023-02-20T12:09:09.886Z,13.33
2023-02-20T12:11:36.472Z,13.43
2023-02-20T12:14:06.469Z,14.85
2023-02-20T12:17:10.400Z,12.52
2023-02-20T12:19:40.305Z,13.43
2023-02-20T12:22:14.881Z,11.97
2023-02-20T12:25:12.247Z,12.35
2023-02-20T12:28:08.948Z,12.43
2023-02-20T12:30:50.264Z,11.88
2023-02-20T12:33:44.048Z,12.05
2023-02-20T12:36:39.498Z,12.07
2023-02-20T12:39:22.688Z,13.27
2023-02-20T12:42:01.650Z,11.85
2023-02-20T12:44:46.796Z,13.18
2023-02-20T12:47:16.534Z,13.02
2023-02-20T12:50:20.637Z,13.73
2023-02-20T12:53:21.196Z,13.38
2023-02-20T12:56:13.249Z,13.77
2023-02-20T12:59:30.175Z,13.60
2023-02-20T13:02:04.670Z,12.23
2023-02-20T13:04:56.756Z,12.87
2023-02-20T13:07:39.246Z,12.82
2023-02-20T13:10:24.998Z,11.98
2023-02-20T13:12:53.214Z,13.02
2023-02-20T13:15:34.768Z,11.60
2023-02-20T13:18:17.492Z,11.07
2023-02-20T13:20:52.496Z,12.02
2023-02-20T13:23:19.132Z,12.68
2023-02-20T13:25:47.495Z,11.90
2023-02-20T13:28:43.393Z,11.48
2023-02-20T13:31:25.601Z,10.20
2023-02-20T13:34:07.383Z,11.65
2023-02-20T13:36:39.733Z,12.52
2023-02-20T13:39:25.194Z,12.57
2023-02-20T13:41:55.018Z,12.35
2023-02-20T13:44:36.580Z,11.33
2023-02-20T13:47:03.381Z,12.80
2023-02-20T13:49:51.277Z,13.23
2023-02-20T13:52:29.861Z,15.88
2023-02-20T13:54:57.464Z,14.27
2023-02-20T13:57:24.121Z,15.30
2023-02-20T13:59:54.728Z,15.25
2023-02-20T14:02:29.464Z,15.55
2023-02-20T14:04:59.544Z,14.32
2023-02-20T14:07:42.917Z,14.82
2023-02-20T14:10:24.416Z,14.90
2023-02-20T14:13:09.453Z,15.20
2023-02-20T14:15:58.812Z,16.42
2023-02-20T14:18:31.644Z,15.43
2023-02-20T14:21:04.898Z,17.92
2023-02-20T14:23:35.277Z,16.23
2023-02-20T14:26:18.418Z,17.45
2023-02-20T14:28:49.286Z,16.35
2023-02-20T14:31:24.253Z,15.57
2023-02-20T14:33:56.100Z,15.80
2023-02-20T14:36:51.213Z,16.87
2023-02-20T14:39:23.840Z,15.93
2023-02-20T14:42:01.713Z,18.05
2023-02-20T14:44:30.672Z,15.10
2023-02-20T14:47:08.562Z,16.70
2023-02-20T14:49:35.473Z,15.73
2023-02-20T14:52:24.158Z,15.60
2023-02-20T14:55:03.140Z,16.40
2023-02-20T14:57:30.382Z,16.90
2023-02-20T15:00:12.154Z,16.30
2023-02-20T15:02:42.192Z,16.60
2023-02-20T15:05:12.520Z,16.48
2023-02-20T15:07:40.369Z,18.67
2023-02-20T15:10:36.442Z,17.58
2023-02-20T15:13:13.192Z,18.10
2023-02-20T15:15:44.306Z,18.13
2023-02-20T15:18:17.613Z,17.33
2023-02-20T15:20:48.473Z,19.08
2023-02-20T15:23:37.095Z,18.33
2023-02-20T15:26:36.153Z,20.40
2023-02-20T15:29:25.910Z,19.63
2023-02-20T15:32:19.859Z,19.50
2023-02-20T15:34:53.944Z,18.30
2023-02-20T15:37:33.649Z,19.02
2023-02-20T15:40:20.894Z,19.30
2023-02-20T15:42:48.180Z,18.17
2023-02-20T15:45:14.950Z,18.55
2023-02-20T15:47:42.268Z,17.83
2023-02-20T15:50:09.152Z,18.27
2023-02-20T15:52:36.091Z,19.73
2023-02-20T15:55:03.195Z,19.67
2023-02-20T15:57:29.862Z,19.50
2023-02-20T15:59:56.477Z,19.83
2023-02-20T16:02:24.519Z,18.77
2023-02-20T16:04:52.289Z,19.13
2023-02-20T16:07:20.876Z,18.53
2023-02-20T16:09:47.471Z,17.85
2023-02-20T16:12:28.344Z,17.33
2023-02-20T16:14:55.245Z,17.08
2023-02-20T16:17:25.462Z,16.92
2023-02-20T16:19:52.520Z,16.77
2023-02-20T16:22:19.268Z,16.23
2023-02-20T16:24:47.054Z,17.50
2023-02-20T16:27:26.424Z,16.85
2023-02-20T16:29:55.352Z,16.75
2023-02-20T16:32:26.211Z,16.20
2023-02-20T16:34:54.852Z,15.65
2023-02-20T16:37:22.244Z,16.00
2023-02-20T16:39:49.273Z,15.93
2023-02-20T16:42:24.911Z,16.38
2023-02-20T16:44:55.173Z,16.67
2023-02-20T16:47:26.046Z,15.88
2023-02-20T16:49:52.973Z,16.60
2023-02-20T16:52:29.305Z,16.00
2023-02-20T16:54:57.352Z,16.27
2023-02-20T16:57:24.973Z,17.13
2023-02-20T16:59:57.136Z,16.80
2023-02-20T17:02:27.358Z,17.33
2023-02-20T17:04:54.588Z,17.48
2023-02-20T17:07:21.728Z,17.08
2023-02-20T17:09:48.377Z,16.70
2023-02-20T17:12:18.715Z,17.27
2023-02-20T17:14:46.396Z,16.05
2023-02-20T17:17:13.994Z,16.50
2023-02-20T17:19:42.099Z,15.82
2023-02-20T17:22:10.177Z,15.17
2023-02-20T17:24:41.392Z,14.73
2023-02-20T17:27:08.862Z,15.18
2023-02-20T17:29:35.461Z,14.43
2023-02-20T17:32:02.381Z,16.65
2023-02-20T17:34:29.044Z,17.00
2023-02-20T17:36:55.954Z,17.13
2023-02-20T17:39:23.890Z,17.75
2023-02-20T17:41:52.474Z,17.45
2023-02-20T17:44:26.324Z,17.55
2023-02-20T17:46:55.464Z,17.40
2023-02-20T17:49:22.957Z,16.77
2023-02-20T17:52:03.474Z,17.80
2023-02-20T17:54:34.233Z,17.63
2023-02-20T17:57:01.397Z,16.98
2023-02-20T17:59:28.636Z,16.77
2023-02-20T18:01:55.251Z,17.33
2023-02-20T18:04:22.329Z,17.20
2023-02-20T18:06:49.264Z,15.85
2023-02-20T18:09:18.294Z,17.30
2023-02-20T18:11:45.024Z,17.53
2023-02-20T18:14:11.781Z,18.15
2023-02-20T18:16:41.344Z,17.08
2023-02-20T18:19:10.433Z,17.98
2023-02-20T18:21:40.438Z,18.52
2023-02-20T18:24:08.099Z,18.17
2023-02-20T18:26:36.125Z,19.00
2023-02-20T18:29:03.232Z,19.88
2023-02-20T18:31:30.020Z,19.23
2023-02-20T18:33:57.216Z,18.52
2023-02-20T18:36:24.641Z,18.47
2023-02-20T18:38:51.512Z,17.90
2023-02-20T18:41:18.139Z,19.13
2023-02-20T18:43:46.177Z,18.58
2023-02-20T18:46:14.496Z,17.90
2023-02-20T18:48:41.489Z,18.90
2023-02-20T18:51:08.210Z,18.95
2023-02-20T18:53:34.822Z,20.45
2023-02-20T18:56:01.428Z,19.52
2023-02-20T18:58:29.944Z,19.20
2023-02-20T19:00:57.617Z,19.60
2023-02-20T19:03:24.313Z,20.73
2023-02-20T19:05:50.890Z,21.00
2023-02-20T19:08:17.610Z,20.13
2023-02-20T19:10:44.577Z,19.77
2023-02-20T19:13:11.647Z,19.37
2023-02-20T19:15:38.313Z,17.65
2023-02-20T19:18:04.974Z,19.17
2023-02-20T19:20:32.240Z,18.08
2023-02-20T19:23:00.462Z,19.08
2023-02-20T19:25:27.250Z,19.27
2023-02-20T19:27:53.952Z,19.50
2023-02-20T19:30:20.954Z,19.67
2023-02-20T19:32:48.190Z,20.08
2023-02-20T19:35:16.633Z,18.92
2023-02-20T19:37:43.847Z,18.17
2023-02-20T19:40:11.052Z,19.17
2023-02-20T19:42:39.133Z,19.52
2023-02-20T19:45:06.235Z,19.65
2023-02-20T19:47:32.864Z,19.17
2023-02-20T19:49:59.505Z,18.93
2023-02-20T19:52:26.107Z,19.40
2023-02-20T19:54:52.796Z,19.80
2023-02-20T19:57:19.419Z,20.25
2023-02-20T19:59:46.032Z,19.85
2023-02-20T20:02:13.057Z,19.47
2023-02-20T20:04:39.843Z,18.35
2023-02-20T20:07:06.622Z,18.60
2023-02-20T20:09:37.239Z,19.45
2023-02-20T20:12:09.316Z,18.27
2023-02-20T20:14:36.165Z,19.00
2023-02-20T20:17:03.739Z,21.23
2023-02-20T20:19:30.905Z,22.67
2023-02-20T20:21:57.637Z,20.77
2023-02-20T20:24:24.246Z,22.70
2023-02-20T20:26:51.041Z,23.20
2023-02-20T20:29:17.705Z,23.75
2023-02-20T20:31:44.483Z,21.10
2023-02-20T20:34:11.101Z,25.10
2023-02-20T20:36:38.722Z,25.98
2023-02-20T20:39:05.475Z,26.33
2023-02-20T20:41:44.080Z,26.50
2023-02-20T20:44:12.573Z,25.98
2023-02-20T20:46:39.351Z,25.15
2023-02-20T20:49:05.987Z,27.75
2023-02-20T20:51:32.611Z,26.20
2023-02-20T20:53:59.232Z,26.33
2023-02-20T20:56:25.886Z,26.02
2023-02-20T20:58:52.532Z,25.70
2023-02-20T21:01:19.238Z,24.42
2023-02-20T21:03:46.000Z,24.40
2023-02-20T21:06:12.931Z,23.92
2023-02-20T21:08:39.628Z,23.42
2023-02-20T21:11:06.572Z,24.15
2023-02-20T21:13:33.233Z,24.30
2023-02-20T21:15:59.912Z,23.83
2023-02-20T21:18:26.543Z,23.40
2023-02-20T21:20:53.185Z,23.52
2023-02-20T21:23:19.936Z,22.25
2023-02-20T21:25:46.559Z,24.10
2023-02-20T21:28:13.180Z,23.20
2023-02-20T21:30:39.900Z,23.55
2023-02-20T21:33:06.602Z,24.65
2023-02-20T21:35:33.288Z,23.13
2023-02-20T21:37:59.876Z,23.25
2023-02-20T21:40:26.541Z,23.77
2023-02-20T21:43:11.689Z,24.65
2023-02-20T21:45:38.310Z,23.35
2023-02-20T21:48:05.431Z,23.90
2023-02-20T21:50:32.270Z,26.13
2023-02-20T21:52:59.914Z,26.30
2023-02-20T21:55:26.555Z,25.48
2023-02-20T21:57:53.572Z,25.27
2023-02-20T22:00:20.248Z,24.83
2023-02-20T22:02:46.949Z,25.52
2023-02-20T22:05:13.716Z,23.23
2023-02-20T22:07:58.765Z,22.65
2023-02-20T22:10:44.031Z,23.33
2023-02-20T22:13:29.449Z,23.17
2023-02-20T22:16:14.899Z,21.67
2023-02-20T22:19:00.192Z,21.70
2023-02-20T22:21:45.847Z,22.65
2023-02-20T22:24:38.223Z,22.02
2023-02-20T22:27:27.944Z,22.05
2023-02-20T22:30:13.382Z,22.42
2023-02-20T22:32:58.799Z,22.33
2023-02-20T22:35:44.226Z,20.98
2023-02-20T22:38:29.492Z,20.92
2023-02-20T22:41:15.038Z,20.92
2023-02-20T22:44:00.669Z,20.00
2023-02-20T22:46:45.981Z,19.53
2023-02-20T22:49:31.246Z,21.20
2023-02-20T22:52:16.658Z,19.92
2023-02-20T22:55:05.270Z,19.70
2023-02-20T22:57:51.109Z,19.55
2023-02-20T23:00:36.541Z,18.90
2023-02-20T23:03:21.970Z,19.70
2023-02-20T23:06:17.059Z,18.98
2023-02-20T23:09:03.279Z,18.13
2023-02-20T23:11:54.728Z,19.77
2023-02-20T23:14:40.710Z,19.53
2023-02-20T23:17:35.721Z,20.27
2023-02-20T23:20:29.006Z,21.10
2023-02-20T23:23:14.429Z,20.48
2023-02-20T23:26:00.012Z,19.80
2023-02-20T23:28:45.393Z,21.23
2023-02-20T23:31:30.894Z,20.75
2023-02-20T23:34:16.227Z,21.55
2023-02-20T23:37:09.717Z,20.63
2023-02-20T23:39:55.113Z,21.02
2023-02-20T23:42:40.632Z,22.40
2023-02-20T23:45:27.231Z,23.13
2023-02-20T23:48:12.416Z,23.30
2023-02-20T23:50:57.679Z,22.83
2023-02-20T23:53:43.020Z,23.65
2023-02-20T23:56:28.548Z,23.10
2023-02-20T23:59:13.988Z,22.05
